createdAt,value
2018-09-07T00:01:03.983Z,97318.34
2018-09-07T00:03:33.314Z,97323.41
2018-09-07T00:06:01.792Z,97326.45
2018-09-07T00:08:30.661Z,97326.62
2018-09-07T00:10:59.853Z,97324.05
2018-09-07T00:13:28.340Z,97323.66
2018-09-07T00:15:57.067Z,97332.28
2018-09-07T00:18:26.335Z,97331.97
2018-09-07T00:20:54.775Z,97328.77
2018-09-07T00:23:23.773Z,97335.16
2018-09-07T00:25:53.498Z,97336.61
2018-09-07T00:28:22.239Z,97336.05
2018-09-07T00:30:51.417Z,97331.86
2018-09-07T00:33:20.026Z,97336.61
2018-09-07T00:35:48.624Z,97339.25
2018-09-07T00:38:17.160Z,97344.44
2018-09-07T00:40:46.258Z,97339.69
2018-09-07T00:43:14.858Z,97343.72
2018-09-07T00:45:43.481Z,97346.28
2018-09-07T00:48:12.027Z,97342.03
2018-09-07T00:50:40.675Z,97335.95
2018-09-07T00:53:09.793Z,97339.78
2018-09-07T00:55:39.437Z,97340.67
2018-09-07T00:58:08.608Z,97340.01
2018-09-07T01:00:37.525Z,97341.15
2018-09-07T01:03:06.088Z,97344.66
2018-09-07T01:05:34.597Z,97351.70
2018-09-07T01:08:03.264Z,97350.81
2018-09-07T01:10:32.000Z,97357.97
2018-09-07T01:13:00.734Z,97349.92
2018-09-07T01:15:29.185Z,97355.25
2018-09-07T01:17:57.793Z,97354.73
2018-09-07T01:20:26.564Z,97353.82
2018-09-07T01:22:55.130Z,97349.92
2018-09-07T01:25:23.812Z,97351.60
2018-09-07T01:27:52.258Z,97347.52
2018-09-07T01:30:20.830Z,97357.75
2018-09-07T01:32:54.527Z,97356.39
2018-09-07T01:35:23.975Z,97354.23
2018-09-07T01:38:55.755Z,97358.63
2018-09-07T01:41:24.198Z,97354.39
2018-09-07T01:43:52.953Z,97358.44
2018-09-07T01:46:21.407Z,97362.84
2018-09-07T01:48:50.721Z,97361.63
2018-09-07T01:51:19.401Z,97360.47
2018-09-07T01:53:48.799Z,97358.19
2018-09-07T01:56:17.864Z,97360.86
2018-09-07T01:58:46.385Z,97362.20
2018-09-07T02:01:15.615Z,97357.42
2018-09-07T02:03:44.775Z,97357.59
2018-09-07T02:06:13.967Z,97362.81
2018-09-07T02:08:42.604Z,97359.17
2018-09-07T02:11:11.449Z,97358.09
2018-09-07T02:13:40.685Z,97362.91
2018-09-07T02:16:09.768Z,97360.09
2018-09-07T02:18:38.360Z,97355.20
2018-09-07T02:21:07.103Z,97358.36
2018-09-07T02:23:35.685Z,97363.34
2018-09-07T02:26:04.997Z,97357.09
2018-09-07T02:28:34.276Z,97362.34
2018-09-07T02:31:03.474Z,97359.72
2018-09-07T02:33:32.606Z,97358.69
2018-09-07T02:36:01.805Z,97361.92
2018-09-07T02:38:30.715Z,97363.73
2018-09-07T02:40:59.277Z,97369.17
2018-09-07T02:43:27.716Z,97368.48
2018-09-07T02:45:56.392Z,97364.84
2018-09-07T02:48:24.778Z,97370.41
2018-09-07T02:50:53.391Z,97365.98
2018-09-07T02:53:22.632Z,97370.98
2018-09-07T02:55:51.475Z,97367.81
2018-09-07T02:58:19.875Z,97367.69
2018-09-07T03:00:49.198Z,97369.74
2018-09-07T03:03:18.394Z,97373.98
2018-09-07T03:05:47.475Z,97375.25
2018-09-07T03:08:15.873Z,97383.19
2018-09-07T03:10:44.419Z,97380.00
2018-09-07T03:13:13.237Z,97373.19
2018-09-07T03:15:41.854Z,97381.26
2018-09-07T03:18:10.707Z,97379.80
2018-09-07T03:20:39.805Z,97372.87
2018-09-07T03:23:08.979Z,97379.35
2018-09-07T03:25:37.439Z,97370.91
2018-09-07T03:28:06.772Z,97374.44
2018-09-07T03:30:35.213Z,97353.70
2018-09-07T03:33:04.058Z,97373.29
2018-09-07T03:35:32.438Z,97374.72
2018-09-07T03:38:01.733Z,97376.48
2018-09-07T03:40:31.072Z,97379.98
2018-09-07T03:42:59.828Z,97371.27
2018-09-07T03:45:28.298Z,97370.08
2018-09-07T03:47:57.676Z,97361.59
2018-09-07T03:50:26.166Z,97370.87
2018-09-07T03:52:54.658Z,97368.60
2018-09-07T03:55:23.223Z,97367.66
2018-09-07T03:57:51.819Z,97360.85
2018-09-07T04:00:21.007Z,97367.24
2018-09-07T04:02:49.655Z,97370.19
2018-09-07T04:05:18.177Z,97369.59
2018-09-07T04:07:47.658Z,97367.47
2018-09-07T04:10:16.176Z,97373.67
2018-09-07T04:12:44.954Z,97382.80
2018-09-07T04:15:15.004Z,97383.94
2018-09-07T04:17:43.452Z,97380.80
2018-09-07T04:20:12.580Z,97381.71
2018-09-07T04:22:41.722Z,97383.08
2018-09-07T04:25:10.268Z,97380.48
2018-09-07T04:27:38.876Z,97392.53
2018-09-07T04:30:07.695Z,97393.33
2018-09-07T04:32:36.703Z,97400.24
2018-09-07T04:35:05.937Z,97400.59
2018-09-07T04:37:34.875Z,97401.49
2018-09-07T04:40:03.374Z,97404.44
2018-09-07T04:42:31.957Z,97407.50
2018-09-07T04:45:00.546Z,97404.33
2018-09-07T04:47:29.240Z,97417.48
2018-09-07T04:49:58.589Z,97421.33
2018-09-07T04:52:27.398Z,97422.38
2018-09-07T04:54:55.897Z,97426.09
2018-09-07T04:57:25.301Z,97423.37
2018-09-07T04:59:54.438Z,97424.61
2018-09-07T05:02:22.851Z,97418.16
2018-09-07T05:04:51.930Z,97426.42
2018-09-07T05:07:20.363Z,97427.75
2018-09-07T05:09:49.536Z,97422.65
2018-09-07T05:12:18.269Z,97417.31
2018-09-07T05:14:46.695Z,97424.57
2018-09-07T05:17:15.912Z,97423.44
2018-09-07T05:19:44.967Z,97431.94
2018-09-07T05:22:13.599Z,97430.69
2018-09-07T05:24:42.760Z,97438.81
2018-09-07T05:27:11.221Z,97434.27
2018-09-07T05:29:39.743Z,97433.59
2018-09-07T05:32:09.507Z,97428.95
2018-09-07T05:34:38.170Z,97436.13
2018-09-07T05:37:07.908Z,97440.66
2018-09-07T05:39:36.493Z,97435.22
2018-09-07T05:42:05.126Z,97437.45
2018-09-07T05:44:33.600Z,97437.86
2018-09-07T05:47:02.886Z,97440.34
2018-09-07T05:49:32.063Z,97438.40
2018-09-07T05:52:01.780Z,97439.53
2018-09-07T05:54:30.805Z,97442.62
2018-09-07T05:56:59.580Z,97447.61
2018-09-07T05:59:28.877Z,97441.71
2018-09-07T06:01:57.445Z,97446.47
2018-09-07T06:04:26.248Z,97444.88
2018-09-07T06:06:55.511Z,97446.86
2018-09-07T06:09:24.721Z,97447.66
2018-09-07T06:11:54.211Z,97461.16
2018-09-07T06:14:23.224Z,97460.70
2018-09-07T06:16:52.574Z,97462.63
2018-09-07T06:19:21.073Z,97462.74
2018-09-07T06:21:51.072Z,97461.26
2018-09-07T06:24:19.837Z,97463.05
2018-09-07T06:26:48.989Z,97468.58
2018-09-07T06:29:17.477Z,97471.52
2018-09-07T06:31:45.922Z,97479.39
2018-09-07T06:34:14.667Z,97478.13
2018-09-07T06:36:43.941Z,97480.11
2018-09-07T06:39:13.712Z,97487.24
2018-09-07T06:41:42.876Z,97483.33
2018-09-07T06:44:12.115Z,97487.08
2018-09-07T06:46:40.727Z,97494.69
2018-09-07T06:49:09.420Z,97495.70
2018-09-07T06:51:38.563Z,97495.58
2018-09-07T06:54:07.066Z,97501.09
2018-09-07T06:56:36.137Z,97500.42
2018-09-07T06:59:05.410Z,97501.91
2018-09-07T07:01:34.211Z,97505.75
2018-09-07T07:04:02.723Z,97517.16
2018-09-07T07:06:31.409Z,97515.17
2018-09-07T07:08:59.920Z,97510.48
2018-09-07T07:11:28.644Z,97516.87
2018-09-07T07:13:57.316Z,97510.43
2018-09-07T07:16:27.015Z,97517.06
2018-09-07T07:18:56.145Z,97516.67
2018-09-07T07:21:25.431Z,97523.84
2018-09-07T07:23:53.807Z,97531.75
2018-09-07T07:26:22.946Z,97522.43
2018-09-07T07:28:51.462Z,97527.16
2018-09-07T07:31:19.935Z,97521.23
2018-09-07T07:33:49.164Z,97528.81
2018-09-07T07:36:18.770Z,97530.92
2018-09-07T07:38:47.441Z,97535.40
2018-09-07T07:41:15.984Z,97532.60
2018-09-07T07:43:45.230Z,97530.80
2018-09-07T07:46:13.784Z,97529.20
2018-09-07T07:48:42.433Z,97538.18
2018-09-07T07:51:15.052Z,97538.54
2018-09-07T07:53:43.513Z,97544.50
2018-09-07T07:56:12.641Z,97547.00
2018-09-07T07:58:41.750Z,97546.69
2018-09-07T08:01:10.272Z,97549.89
2018-09-07T08:03:39.334Z,97550.78
2018-09-07T08:06:08.514Z,97554.83
2018-09-07T08:08:37.943Z,97552.05
2018-09-07T08:11:07.034Z,97555.09
2018-09-07T08:13:36.134Z,97553.13
2018-09-07T08:16:06.142Z,97554.65
2018-09-07T08:18:34.743Z,97556.02
2018-09-07T08:21:04.953Z,97561.08
2018-09-07T08:23:33.569Z,97554.11
2018-09-07T08:26:02.331Z,97555.69
2018-09-07T08:28:30.861Z,97572.82
2018-09-07T08:30:59.402Z,97574.00
2018-09-07T08:33:28.228Z,97578.31
2018-09-07T08:35:57.364Z,97577.91
2018-09-07T08:38:26.826Z,97573.79
2018-09-07T08:40:56.750Z,97576.63
2018-09-07T08:43:25.366Z,97576.07
2018-09-07T08:45:54.197Z,97581.34
2018-09-07T08:48:23.448Z,97579.34
2018-09-07T08:50:51.976Z,97574.47
2018-09-07T08:53:21.135Z,97584.61
2018-09-07T08:55:49.783Z,97585.19
2018-09-07T08:58:19.437Z,97584.41
2018-09-07T09:00:48.192Z,97586.11
2018-09-07T09:03:16.803Z,97586.41
2018-09-07T09:05:46.025Z,97598.75
2018-09-07T09:08:14.611Z,97601.62
2018-09-07T09:10:43.255Z,97596.72
2018-09-07T09:13:11.942Z,97595.89
2018-09-07T09:15:41.254Z,97596.77
2018-09-07T09:18:10.240Z,97600.80
2018-09-07T09:20:39.380Z,97601.77
2018-09-07T09:23:09.565Z,97606.27
2018-09-07T09:25:38.956Z,97614.92
2018-09-07T09:28:08.154Z,97611.18
2018-09-07T09:30:37.520Z,97614.83
2018-09-07T09:33:06.780Z,97604.73
2018-09-07T09:35:35.714Z,97607.27
2018-09-07T09:38:04.916Z,97603.72
2018-09-07T09:40:34.165Z,97601.47
2018-09-07T09:43:04.062Z,97598.88
2018-09-07T09:45:32.775Z,97598.70
2018-09-07T09:48:01.417Z,97599.79
2018-09-07T09:50:30.557Z,97603.45
2018-09-07T09:52:59.483Z,97592.52
2018-09-07T09:55:28.073Z,97601.47
2018-09-07T09:57:56.680Z,97597.64
2018-09-07T10:00:31.137Z,97598.85
2018-09-07T10:03:05.124Z,97599.53
2018-09-07T10:05:34.489Z,97602.69
2018-09-07T10:08:03.771Z,97602.27
2018-09-07T10:10:32.281Z,97603.89
2018-09-07T10:13:00.886Z,97609.08
2018-09-07T10:15:30.288Z,97609.38
2018-09-07T10:17:59.689Z,97605.47
2018-09-07T10:20:28.463Z,97612.09
2018-09-07T10:22:57.868Z,97605.38
2018-09-07T10:25:28.010Z,97610.91
2018-09-07T10:27:56.690Z,97603.27
2018-09-07T10:30:25.750Z,97608.23
2018-09-07T10:32:54.339Z,97602.30
2018-09-07T10:35:23.556Z,97603.30
2018-09-07T10:37:53.375Z,97610.94
2018-09-07T10:40:22.026Z,97609.47
2018-09-07T10:42:51.257Z,97605.75
2018-09-07T10:45:21.049Z,97610.84
2018-09-07T10:47:50.417Z,97618.62
2018-09-07T10:50:19.593Z,97616.11
2018-09-07T10:52:49.489Z,97612.75
2018-09-07T10:55:18.024Z,97609.57
2018-09-07T10:57:46.806Z,97609.59
2018-09-07T11:00:15.312Z,97620.78
2018-09-07T11:02:45.462Z,97619.50
2018-09-07T11:05:14.846Z,97618.04
2018-09-07T11:07:43.789Z,97608.11
2018-09-07T11:10:13.080Z,97624.13
2018-09-07T11:12:41.598Z,97621.55
2018-09-07T11:15:10.492Z,97627.02
2018-09-07T11:17:39.060Z,97625.55
2018-09-07T11:20:08.935Z,97625.13
2018-09-07T11:22:39.140Z,97618.23
2018-09-07T11:25:08.348Z,97628.02
2018-09-07T11:27:37.530Z,97621.64
2018-09-07T11:30:06.348Z,97627.98
2018-09-07T11:32:35.170Z,97624.52
2018-09-07T11:35:04.265Z,97620.09
2018-09-07T11:37:33.538Z,97616.77
2018-09-07T11:40:02.229Z,97613.48
2018-09-07T11:42:31.061Z,97616.48
2018-09-07T11:45:00.238Z,97620.67
2018-09-07T11:47:29.485Z,97617.17
2018-09-07T11:49:58.755Z,97616.86
2018-09-07T11:52:27.979Z,97615.41
2018-09-07T11:54:56.727Z,97610.09
2018-09-07T11:57:26.389Z,97604.95
2018-09-07T11:59:55.645Z,97608.08
2018-09-07T12:02:24.979Z,97605.93
2018-09-07T12:04:53.964Z,97604.96
2018-09-07T12:07:23.213Z,97610.84
2018-09-07T12:09:52.446Z,97610.39
2018-09-07T12:12:21.440Z,97609.63
2018-09-07T12:14:50.557Z,97608.42
2018-09-07T12:17:19.146Z,97620.79
2018-09-07T12:19:48.220Z,97619.24
2018-09-07T12:22:22.553Z,97619.52
2018-09-07T12:24:51.731Z,97623.62
2018-09-07T12:27:20.919Z,97625.94
2018-09-07T12:29:49.778Z,97620.60
2018-09-07T12:32:19.002Z,97623.98
2018-09-07T12:34:48.621Z,97624.33
2018-09-07T12:37:17.862Z,97630.41
2018-09-07T12:39:46.400Z,97629.62
2018-09-07T12:42:15.348Z,97632.98
2018-09-07T12:44:44.741Z,97643.36
2018-09-07T12:47:14.440Z,97651.72
2018-09-07T12:49:43.605Z,97651.84
2018-09-07T12:52:12.158Z,97654.77
2018-09-07T12:54:40.832Z,97657.53
2018-09-07T12:57:09.932Z,97658.72
2018-09-07T12:59:39.876Z,97653.66
2018-09-07T13:02:08.620Z,97657.95
2018-09-07T13:04:37.194Z,97659.38
2018-09-07T13:07:06.549Z,97662.41
2018-09-07T13:09:35.886Z,97659.41
2018-09-07T13:12:04.871Z,97661.66
2018-09-07T13:14:33.359Z,97657.69
2018-09-07T13:17:01.996Z,97654.89
2018-09-07T13:19:30.690Z,97652.66
2018-09-07T13:21:59.951Z,97654.19
2018-09-07T13:24:29.180Z,97653.50
2018-09-07T13:26:57.747Z,97653.18
2018-09-07T13:29:26.519Z,97647.13
2018-09-07T13:31:54.994Z,97647.23
2018-09-07T13:34:24.192Z,97646.95
2018-09-07T13:36:53.221Z,97645.64
2018-09-07T13:39:21.957Z,97650.00
2018-09-07T13:41:50.868Z,97645.03
2018-09-07T13:44:20.167Z,97653.03
2018-09-07T13:46:49.380Z,97651.33
2018-09-07T13:49:18.923Z,97663.25
2018-09-07T13:51:47.714Z,97656.06
2018-09-07T13:54:16.981Z,97659.11
2018-09-07T13:56:45.576Z,97661.23
2018-09-07T13:59:14.032Z,97620.62
2018-09-07T14:01:42.765Z,97656.37
2018-09-07T14:04:11.322Z,97658.60
2018-09-07T14:06:40.088Z,97655.09
2018-09-07T14:09:09.866Z,97655.04
2018-09-07T14:11:38.697Z,97640.58
2018-09-07T14:14:07.996Z,97658.08
2018-09-07T14:16:36.503Z,97646.13
2018-09-07T14:19:05.169Z,97640.00
2018-09-07T14:21:33.642Z,97641.23
2018-09-07T14:24:02.882Z,97643.45
2018-09-07T14:26:31.373Z,97642.97
2018-09-07T14:28:59.864Z,97640.08
2018-09-07T14:31:28.474Z,97639.39
2018-09-07T14:33:57.092Z,97640.69
2018-09-07T14:36:25.780Z,97644.14
2018-09-07T14:38:54.147Z,97641.81
2018-09-07T14:41:22.621Z,97638.91
2018-09-07T14:43:51.882Z,97637.64
2018-09-07T14:46:21.026Z,97634.78
2018-09-07T14:48:49.632Z,97637.00
2018-09-07T14:51:18.078Z,97642.03
2018-09-07T14:53:47.361Z,97634.38
2018-09-07T14:56:15.888Z,97634.47
2018-09-07T14:58:44.676Z,97633.11
2018-09-07T15:01:13.331Z,97641.95
2018-09-07T15:03:42.572Z,97643.33
2018-09-07T15:06:12.226Z,97641.03
2018-09-07T15:08:40.922Z,97644.29
2018-09-07T15:11:10.121Z,97648.64
2018-09-07T15:13:39.633Z,97649.88
2018-09-07T15:16:08.159Z,97652.05
2018-09-07T15:18:36.802Z,97660.28
2018-09-07T15:21:05.307Z,97666.88
2018-09-07T15:23:33.859Z,97668.23
2018-09-07T15:26:02.593Z,97666.47
2018-09-07T15:28:31.159Z,97676.31
2018-09-07T15:31:00.113Z,97666.38
2018-09-07T15:33:28.621Z,97666.36
2018-09-07T15:35:57.780Z,97666.58
2018-09-07T15:38:26.860Z,97667.03
2018-09-07T15:40:56.040Z,97674.39
2018-09-07T15:43:24.667Z,97670.27
2018-09-07T15:45:53.222Z,97689.34
2018-09-07T15:48:21.767Z,97683.38
2018-09-07T15:50:50.394Z,97687.52
2018-09-07T15:53:19.150Z,97680.39
2018-09-07T15:55:47.869Z,97684.45
2018-09-07T15:58:16.980Z,97688.41
2018-09-07T16:00:45.800Z,97691.95
2018-09-07T16:03:15.024Z,97696.34
2018-09-07T16:05:43.663Z,97693.23
2018-09-07T16:08:12.227Z,97692.95
2018-09-07T16:10:41.450Z,97695.58
2018-09-07T16:13:10.065Z,97689.14
2018-09-07T16:15:39.295Z,97698.20
2018-09-07T16:18:07.838Z,97699.73
2018-09-07T16:20:36.924Z,97700.23
2018-09-07T16:23:05.945Z,97701.50
2018-09-07T16:25:35.187Z,97705.11
2018-09-07T16:28:04.435Z,97713.62
2018-09-07T16:30:34.305Z,97718.38
2018-09-07T16:33:03.942Z,97714.08
2018-09-07T16:35:33.251Z,97719.19
2018-09-07T16:38:02.338Z,97721.18
2018-09-07T16:40:31.029Z,97716.45
2018-09-07T16:43:00.989Z,97720.78
2018-09-07T16:45:30.158Z,97726.52
2018-09-07T16:47:59.294Z,97722.64
2018-09-07T16:50:28.518Z,97724.16
2018-09-07T16:52:57.262Z,97729.06
2018-09-07T16:55:26.939Z,97725.77
2018-09-07T16:57:56.084Z,97731.92
2018-09-07T17:00:25.395Z,97736.74
2018-09-07T17:02:53.990Z,97731.06
2018-09-07T17:05:23.165Z,97737.90
2018-09-07T17:07:51.957Z,97743.97
2018-09-07T17:10:21.372Z,97743.74
2018-09-07T17:12:49.836Z,97744.05
2018-09-07T17:15:18.710Z,97753.98
2018-09-07T17:17:48.683Z,97762.89
2018-09-07T17:20:17.233Z,97760.84
2018-09-07T17:22:46.710Z,97769.80
2018-09-07T17:25:16.576Z,97768.95
2018-09-07T17:27:45.743Z,97773.84
2018-09-07T17:30:14.268Z,97778.77
2018-09-07T17:32:42.955Z,97776.67
2018-09-07T17:35:11.518Z,97780.77
2018-09-07T17:37:40.058Z,97783.59
2018-09-07T17:40:12.020Z,97782.30
2018-09-07T17:42:42.781Z,97787.98
2018-09-07T17:45:14.605Z,97790.11
2018-09-07T17:47:49.675Z,97789.63
2018-09-07T17:50:20.054Z,97799.01
2018-09-07T17:52:52.457Z,97803.59
2018-09-07T17:55:22.931Z,97806.02
2018-09-07T17:57:54.277Z,97813.59
2018-09-07T18:00:23.626Z,97815.08
2018-09-07T18:03:06.517Z,97826.80
2018-09-07T18:05:40.480Z,97821.12
2018-09-07T18:08:18.881Z,97828.84
2018-09-07T18:10:57.345Z,97835.55
2018-09-07T18:13:28.729Z,97828.16
2018-09-07T18:16:01.703Z,97836.22
2018-09-07T18:18:30.809Z,97847.48
2018-09-07T18:20:59.411Z,97851.35
2018-09-07T18:23:28.192Z,97851.81
2018-09-07T18:25:57.493Z,97861.98
2018-09-07T18:28:26.176Z,97862.20
2018-09-07T18:30:55.736Z,97865.63
2018-09-07T18:33:24.269Z,97870.52
2018-09-07T18:35:54.012Z,97875.74
2018-09-07T18:38:23.624Z,97878.36
2018-09-07T18:40:52.411Z,97881.78
2018-09-07T18:43:21.154Z,97878.03
2018-09-07T18:45:49.703Z,97877.12
2018-09-07T18:48:18.434Z,97878.03
2018-09-07T18:50:47.424Z,97884.40
2018-09-07T18:53:17.287Z,97884.66
2018-09-07T18:55:47.382Z,97887.39
2018-09-07T18:58:15.984Z,97889.32
2018-09-07T19:00:44.466Z,97886.28
2018-09-07T19:03:13.043Z,97892.19
2018-09-07T19:05:42.298Z,97890.25
2018-09-07T19:08:11.302Z,97895.14
2018-09-07T19:10:40.211Z,97905.02
2018-09-07T19:13:08.742Z,97903.98
2018-09-07T19:15:37.356Z,97902.53
2018-09-07T19:18:06.307Z,97904.23
2018-09-07T19:20:35.602Z,97906.48
2018-09-07T19:23:05.066Z,97909.23
2018-09-07T19:25:35.143Z,97911.94
2018-09-07T19:28:03.852Z,97913.75
2018-09-07T19:30:32.587Z,97916.91
2018-09-07T19:33:01.805Z,97917.14
2018-09-07T19:35:30.436Z,97911.47
2018-09-07T19:38:00.063Z,97908.86
2018-09-07T19:40:29.481Z,97912.96
2018-09-07T19:42:58.153Z,97914.17
2018-09-07T19:45:27.823Z,97914.29
2018-09-07T19:47:56.628Z,97917.02
2018-09-07T19:50:26.315Z,97915.88
2018-09-07T19:52:54.899Z,97913.64
2018-09-07T19:55:23.633Z,97906.94
2018-09-07T19:57:53.076Z,97910.45
2018-09-07T20:00:22.067Z,97907.97
2018-09-07T20:02:50.688Z,97907.03
2018-09-07T20:05:19.593Z,97914.28
2018-09-07T20:07:48.908Z,97928.13
2018-09-07T20:10:17.639Z,97924.91
2018-09-07T20:12:47.247Z,97929.75
2018-09-07T20:15:17.425Z,97938.66
2018-09-07T20:17:46.606Z,97941.14
2018-09-07T20:20:16.076Z,97939.37
2018-09-07T20:22:44.779Z,97939.03
2018-09-07T20:25:15.316Z,97946.29
2018-09-07T20:27:44.477Z,97941.13
2018-09-07T20:30:13.130Z,97941.06
2018-09-07T20:32:42.380Z,97943.42
2018-09-07T20:35:11.207Z,97948.66
2018-09-07T20:37:40.387Z,97947.73
2018-09-07T20:40:09.705Z,97946.33
2018-09-07T20:42:38.914Z,97951.30
2018-09-07T20:45:08.294Z,97953.08
2018-09-07T20:47:37.431Z,97947.09
2018-09-07T20:50:06.096Z,97949.98
2018-09-07T20:52:34.666Z,97959.73
2018-09-07T20:55:03.187Z,97960.44
2018-09-07T20:57:31.982Z,97964.91
2018-09-07T21:00:00.485Z,97968.30
2018-09-07T21:02:29.052Z,97974.42
2018-09-07T21:04:58.153Z,97972.05
2018-09-07T21:07:26.643Z,97983.92
2018-09-07T21:09:55.233Z,97985.84
2018-09-07T21:12:23.825Z,97987.61
2018-09-07T21:14:52.327Z,97986.02
2018-09-07T21:17:22.153Z,97986.02
2018-09-07T21:19:51.479Z,97986.57
2018-09-07T21:22:20.050Z,97993.14
2018-09-07T21:24:49.336Z,97997.78
2018-09-07T21:27:17.966Z,97995.97
2018-09-07T21:29:46.399Z,97997.42
2018-09-07T21:32:15.593Z,97997.50
2018-09-07T21:34:44.063Z,98003.13
2018-09-07T21:37:13.672Z,98005.84
2018-09-07T21:39:42.963Z,98004.97
2018-09-07T21:42:11.478Z,98005.05
2018-09-07T21:44:40.606Z,98010.80
2018-09-07T21:47:10.616Z,98013.72
2018-09-07T21:49:40.110Z,98016.16
2018-09-07T21:52:09.448Z,98020.03
2018-09-07T21:54:38.506Z,98025.15
2018-09-07T21:57:07.179Z,98026.13
2018-09-07T21:59:35.771Z,98032.52
2018-09-07T22:02:05.717Z,98031.25
2018-09-07T22:04:34.206Z,98031.14
2018-09-07T22:07:08.478Z,98029.89
2018-09-07T22:09:37.096Z,98036.20
2018-09-07T22:12:07.769Z,98031.89
2018-09-07T22:14:36.699Z,98036.75
2018-09-07T22:17:06.725Z,98034.20
2018-09-07T22:19:35.755Z,98041.06
2018-09-07T22:22:04.987Z,98040.74
2018-09-07T22:24:33.467Z,98038.26
2018-09-07T22:27:02.471Z,98043.88
2018-09-07T22:29:31.015Z,98042.66
2018-09-07T22:31:59.975Z,98047.61
2018-09-07T22:34:29.106Z,98051.36
2018-09-07T22:36:58.073Z,98050.39
2018-09-07T22:39:27.205Z,98048.09
2018-09-07T22:41:55.646Z,98054.87
2018-09-07T22:44:24.088Z,98056.55
2018-09-07T22:49:17.255Z,98067.23
2018-09-07T22:51:47.011Z,98071.52
2018-09-07T22:54:16.930Z,98073.84
2018-09-07T22:56:45.384Z,98071.13
2018-09-07T22:59:14.704Z,98065.70
2018-09-07T23:01:43.824Z,98070.71
2018-09-07T23:04:13.119Z,98075.02
2018-09-07T23:06:47.111Z,98077.48
2018-09-07T23:09:16.299Z,98084.41
2018-09-07T23:11:44.938Z,98081.94
2018-09-07T23:14:13.470Z,98083.09
2018-09-07T23:16:41.943Z,98081.00
2018-09-07T23:19:10.475Z,98075.16
2018-09-07T23:21:39.683Z,98080.41
2018-09-07T23:24:08.749Z,98078.66
2018-09-07T23:26:37.693Z,98075.15
2018-09-07T23:29:07.214Z,98077.38
2018-09-07T23:31:35.675Z,98078.31
2018-09-07T23:34:04.089Z,98076.70
2018-09-07T23:36:32.993Z,98076.08
2018-09-07T23:39:01.435Z,98085.89
2018-09-07T23:41:29.932Z,98081.09
2018-09-07T23:43:58.535Z,98089.48
2018-09-07T23:46:28.059Z,98093.86
2018-09-07T23:48:57.535Z,98093.61
2018-09-07T23:51:26.629Z,98084.75
2018-09-07T23:53:55.551Z,98087.88
2018-09-07T23:56:24.157Z,98097.70
2018-09-07T23:58:52.904Z,98093.08
